sensor_id;sensor_type;location;lat;lon;timestamp;P1;durP1;ratioP1;P2;durP2;ratioP2
22656;SDS011;11495;55.610;12.100;2023-03-13T00:01:28;8.23;;;4.93;;
22656;SDS011;11495;55.610;12.100;2023-03-13T00:03:54;10.05;;;5.30;;
22656;SDS011;11495;55.610;12.100;2023-03-13T00:06:20;6.75;;;4.70;;
22656;SDS011;11495;55.610;12.100;2023-03-13T00:08:45;11.30;;;5.57;;
22656;SDS011;11495;55.610;12.100;2023-03-13T00:11:11;6.07;;;4.68;;
22656;SDS011;11495;55.610;12.100;2023-03-13T00:13:36;9.95;;;4.75;;
22656;SDS011;11495;55.610;12.100;2023-03-13T00:16:02;9.85;;;5.12;;
22656;SDS011;11495;55.610;12.100;2023-03-13T00:18:28;7.57;;;4.37;;
22656;SDS011;11495;55.610;12.100;2023-03-13T00:21:01;9.07;;;5.65;;
22656;SDS011;11495;55.610;12.100;2023-03-13T00:23:26;7.23;;;4.70;;
22656;SDS011;11495;55.610;12.100;2023-03-13T00:25:56;8.75;;;5.30;;
22656;SDS011;11495;55.610;12.100;2023-03-13T00:28:21;9.75;;;5.90;;
22656;SDS011;11495;55.610;12.100;2023-03-13T00:30:46;9.60;;;5.87;;
22656;SDS011;11495;55.610;12.100;2023-03-13T00:33:11;9.80;;;5.70;;
22656;SDS011;11495;55.610;12.100;2023-03-13T00:35:37;6.53;;;5.50;;
22656;SDS011;11495;55.610;12.100;2023-03-13T00:38:02;6.40;;;4.73;;
22656;SDS011;11495;55.610;12.100;2023-03-13T00:40:27;8.37;;;5.40;;
22656;SDS011;11495;55.610;12.100;2023-03-13T00:42:52;9.63;;;5.80;;
22656;SDS011;11495;55.610;12.100;2023-03-13T00:45:18;10.37;;;5.63;;
22656;SDS011;11495;55.610;12.100;2023-03-13T00:47:43;14.75;;;6.78;;
22656;SDS011;11495;55.610;12.100;2023-03-13T00:50:08;6.93;;;5.23;;
22656;SDS011;11495;55.610;12.100;2023-03-13T00:52:34;8.27;;;5.75;;
22656;SDS011;11495;55.610;12.100;2023-03-13T00:54:59;12.00;;;6.60;;
22656;SDS011;11495;55.610;12.100;2023-03-13T00:57:24;12.32;;;5.53;;
22656;SDS011;11495;55.610;12.100;2023-03-13T00:59:49;15.83;;;8.40;;
22656;SDS011;11495;55.610;12.100;2023-03-13T01:02:15;13.87;;;6.60;;
22656;SDS011;11495;55.610;12.100;2023-03-13T01:04:40;17.73;;;8.43;;
22656;SDS011;11495;55.610;12.100;2023-03-13T01:07:05;20.50;;;10.17;;
22656;SDS011;11495;55.610;12.100;2023-03-13T01:09:31;24.48;;;10.90;;
22656;SDS011;11495;55.610;12.100;2023-03-13T01:11:56;29.02;;;10.98;;
22656;SDS011;11495;55.610;12.100;2023-03-13T01:14:21;28.63;;;11.63;;
22656;SDS011;11495;55.610;12.100;2023-03-13T01:16:46;31.33;;;12.73;;
22656;SDS011;11495;55.610;12.100;2023-03-13T01:19:12;35.05;;;13.52;;
22656;SDS011;11495;55.610;12.100;2023-03-13T01:21:38;29.37;;;13.20;;
22656;SDS011;11495;55.610;12.100;2023-03-13T01:24:03;44.13;;;15.02;;
22656;SDS011;11495;55.610;12.100;2023-03-13T01:26:29;34.45;;;13.90;;
22656;SDS011;11495;55.610;12.100;2023-03-13T01:28:54;36.38;;;14.52;;
22656;SDS011;11495;55.610;12.100;2023-03-13T01:31:30;36.35;;;12.35;;
22656;SDS011;11495;55.610;12.100;2023-03-13T01:33:57;31.70;;;13.00;;
22656;SDS011;11495;55.610;12.100;2023-03-13T01:36:22;34.20;;;13.05;;
22656;SDS011;11495;55.610;12.100;2023-03-13T01:38:48;37.80;;;12.18;;
22656;SDS011;11495;55.610;12.100;2023-03-13T01:41:14;21.95;;;11.73;;
22656;SDS011;11495;55.610;12.100;2023-03-13T01:43:39;38.35;;;12.90;;
22656;SDS011;11495;55.610;12.100;2023-03-13T01:46:15;24.20;;;10.57;;
22656;SDS011;11495;55.610;12.100;2023-03-13T01:56:19;29.50;;;10.40;;
22656;SDS011;11495;55.610;12.100;2023-03-13T01:58:46;30.42;;;10.65;;
22656;SDS011;11495;55.610;12.100;2023-03-13T02:01:13;29.65;;;9.95;;
22656;SDS011;11495;55.610;12.100;2023-03-13T02:03:38;33.65;;;11.80;;
22656;SDS011;11495;55.610;12.100;2023-03-13T02:06:03;24.50;;;10.50;;
22656;SDS011;11495;55.610;12.100;2023-03-13T02:08:31;34.85;;;11.93;;
22656;SDS011;11495;55.610;12.100;2023-03-13T02:10:59;33.17;;;10.88;;
22656;SDS011;11495;55.610;12.100;2023-03-13T02:13:27;31.95;;;10.82;;
22656;SDS011;11495;55.610;12.100;2023-03-13T02:15:53;40.40;;;11.75;;
22656;SDS011;11495;55.610;12.100;2023-03-13T02:18:18;21.65;;;9.32;;
22656;SDS011;11495;55.610;12.100;2023-03-13T02:20:43;35.22;;;10.50;;
22656;SDS011;11495;55.610;12.100;2023-03-13T02:23:12;37.83;;;11.27;;
22656;SDS011;11495;55.610;12.100;2023-03-13T02:25:41;36.53;;;10.38;;
22656;SDS011;11495;55.610;12.100;2023-03-13T02:28:10;23.38;;;9.32;;
22656;SDS011;11495;55.610;12.100;2023-03-13T02:30:36;46.25;;;11.73;;
22656;SDS011;11495;55.610;12.100;2023-03-13T02:33:02;33.83;;;9.68;;
22656;SDS011;11495;55.610;12.100;2023-03-13T02:35:28;37.88;;;11.05;;
22656;SDS011;11495;55.610;12.100;2023-03-13T02:37:55;29.92;;;10.45;;
22656;SDS011;11495;55.610;12.100;2023-03-13T02:40:23;33.00;;;9.60;;
22656;SDS011;11495;55.610;12.100;2023-03-13T02:42:49;25.05;;;11.77;;
22656;SDS011;11495;55.610;12.100;2023-03-13T02:45:15;28.23;;;9.95;;
22656;SDS011;11495;55.610;12.100;2023-03-13T02:47:41;31.75;;;9.25;;
22656;SDS011;11495;55.610;12.100;2023-03-13T02:50:06;30.50;;;9.20;;
22656;SDS011;11495;55.610;12.100;2023-03-13T02:52:33;33.42;;;10.32;;
22656;SDS011;11495;55.610;12.100;2023-03-13T02:55:04;27.00;;;7.80;;
22656;SDS011;11495;55.610;12.100;2023-03-13T02:57:30;28.52;;;10.20;;
22656;SDS011;11495;55.610;12.100;2023-03-13T02:59:56;39.17;;;9.10;;
22656;SDS011;11495;55.610;12.100;2023-03-13T03:02:21;32.08;;;10.65;;
22656;SDS011;11495;55.610;12.100;2023-03-13T03:04:46;24.10;;;8.38;;
22656;SDS011;11495;55.610;12.100;2023-03-13T03:07:12;33.00;;;9.90;;
22656;SDS011;11495;55.610;12.100;2023-03-13T03:09:37;23.90;;;9.00;;
22656;SDS011;11495;55.610;12.100;2023-03-13T03:12:02;31.43;;;9.30;;
22656;SDS011;11495;55.610;12.100;2023-03-13T03:14:27;23.48;;;8.52;;
22656;SDS011;11495;55.610;12.100;2023-03-13T03:16:53;26.23;;;8.07;;
22656;SDS011;11495;55.610;12.100;2023-03-13T03:19:18;32.20;;;8.67;;
22656;SDS011;11495;55.610;12.100;2023-03-13T03:21:43;33.33;;;9.43;;
22656;SDS011;11495;55.610;12.100;2023-03-13T03:24:08;23.60;;;8.77;;
22656;SDS011;11495;55.610;12.100;2023-03-13T03:26:34;25.83;;;8.88;;
22656;SDS011;11495;55.610;12.100;2023-03-13T03:28:59;23.70;;;9.47;;
22656;SDS011;11495;55.610;12.100;2023-03-13T03:31:24;25.73;;;9.80;;
22656;SDS011;11495;55.610;12.100;2023-03-13T03:33:49;28.10;;;9.82;;
22656;SDS011;11495;55.610;12.100;2023-03-13T03:36:16;25.60;;;9.30;;
22656;SDS011;11495;55.610;12.100;2023-03-13T03:38:42;21.75;;;7.95;;
22656;SDS011;11495;55.610;12.100;2023-03-13T03:41:08;24.02;;;7.78;;
22656;SDS011;11495;55.610;12.100;2023-03-13T03:43:33;19.37;;;8.60;;
22656;SDS011;11495;55.610;12.100;2023-03-13T03:45:58;11.90;;;7.62;;
22656;SDS011;11495;55.610;12.100;2023-03-13T03:48:24;18.90;;;7.90;;
22656;SDS011;11495;55.610;12.100;2023-03-13T03:50:49;12.80;;;7.07;;
22656;SDS011;11495;55.610;12.100;2023-03-13T03:53:14;12.73;;;6.40;;
22656;SDS011;11495;55.610;12.100;2023-03-13T03:55:39;16.63;;;7.53;;
22656;SDS011;11495;55.610;12.100;2023-03-13T03:58:05;26.10;;;9.80;;
22656;SDS011;11495;55.610;12.100;2023-03-13T04:00:30;19.83;;;8.38;;
22656;SDS011;11495;55.610;12.100;2023-03-13T04:02:55;23.02;;;8.52;;
22656;SDS011;11495;55.610;12.100;2023-03-13T04:05:21;20.00;;;7.12;;
22656;SDS011;11495;55.610;12.100;2023-03-13T04:07:47;15.05;;;8.23;;
22656;SDS011;11495;55.610;12.100;2023-03-13T04:10:12;17.60;;;9.23;;
22656;SDS011;11495;55.610;12.100;2023-03-13T04:12:38;20.55;;;8.05;;
22656;SDS011;11495;55.610;12.100;2023-03-13T04:15:03;19.87;;;7.62;;
22656;SDS011;11495;55.610;12.100;2023-03-13T04:17:28;17.08;;;7.43;;
22656;SDS011;11495;55.610;12.100;2023-03-13T04:19:54;18.00;;;6.73;;
22656;SDS011;11495;55.610;12.100;2023-03-13T04:22:19;15.40;;;6.83;;
22656;SDS011;11495;55.610;12.100;2023-03-13T04:24:44;10.53;;;7.23;;
22656;SDS011;11495;55.610;12.100;2023-03-13T04:27:09;17.57;;;7.47;;
22656;SDS011;11495;55.610;12.100;2023-03-13T04:29:34;23.93;;;9.07;;
22656;SDS011;11495;55.610;12.100;2023-03-13T04:32:00;17.70;;;8.10;;
22656;SDS011;11495;55.610;12.100;2023-03-13T04:34:25;15.98;;;8.48;;
22656;SDS011;11495;55.610;12.100;2023-03-13T04:36:50;27.15;;;10.05;;
22656;SDS011;11495;55.610;12.100;2023-03-13T04:39:16;26.27;;;10.15;;
22656;SDS011;11495;55.610;12.100;2023-03-13T04:41:41;23.33;;;10.00;;
22656;SDS011;11495;55.610;12.100;2023-03-13T04:44:06;21.77;;;7.73;;
22656;SDS011;11495;55.610;12.100;2023-03-13T04:46:32;15.65;;;7.47;;
22656;SDS011;11495;55.610;12.100;2023-03-13T04:48:57;19.47;;;7.13;;
22656;SDS011;11495;55.610;12.100;2023-03-13T04:51:22;17.50;;;8.10;;
22656;SDS011;11495;55.610;12.100;2023-03-13T04:53:47;15.13;;;7.93;;
22656;SDS011;11495;55.610;12.100;2023-03-13T04:56:15;19.75;;;7.80;;
22656;SDS011;11495;55.610;12.100;2023-03-13T04:58:44;14.20;;;6.80;;
22656;SDS011;11495;55.610;12.100;2023-03-13T05:01:09;18.73;;;7.50;;
22656;SDS011;11495;55.610;12.100;2023-03-13T05:03:34;9.57;;;5.43;;
22656;SDS011;11495;55.610;12.100;2023-03-13T05:06:00;14.23;;;6.27;;
22656;SDS011;11495;55.610;12.100;2023-03-13T05:08:25;21.10;;;7.28;;
22656;SDS011;11495;55.610;12.100;2023-03-13T05:10:50;18.15;;;7.43;;
22656;SDS011;11495;55.610;12.100;2023-03-13T05:13:15;8.10;;;5.17;;
22656;SDS011;11495;55.610;12.100;2023-03-13T05:15:41;15.97;;;6.13;;
22656;SDS011;11495;55.610;12.100;2023-03-13T05:18:06;13.97;;;6.80;;
22656;SDS011;11495;55.610;12.100;2023-03-13T05:20:31;16.80;;;5.97;;
22656;SDS011;11495;55.610;12.100;2023-03-13T05:22:56;15.87;;;7.20;;
22656;SDS011;11495;55.610;12.100;2023-03-13T05:25:22;17.37;;;6.70;;
22656;SDS011;11495;55.610;12.100;2023-03-13T05:27:47;12.23;;;6.47;;
22656;SDS011;11495;55.610;12.100;2023-03-13T05:30:12;14.93;;;5.83;;
22656;SDS011;11495;55.610;12.100;2023-03-13T05:32:37;17.33;;;7.28;;
22656;SDS011;11495;55.610;12.100;2023-03-13T05:35:03;15.77;;;8.30;;
22656;SDS011;11495;55.610;12.100;2023-03-13T05:37:28;15.20;;;7.75;;
22656;SDS011;11495;55.610;12.100;2023-03-13T05:39:53;14.43;;;6.63;;
22656;SDS011;11495;55.610;12.100;2023-03-13T05:42:18;14.68;;;6.50;;
22656;SDS011;11495;55.610;12.100;2023-03-13T05:44:44;19.43;;;7.63;;
22656;SDS011;11495;55.610;12.100;2023-03-13T05:47:09;17.30;;;8.05;;
22656;SDS011;11495;55.610;12.100;2023-03-13T05:49:34;13.20;;;7.80;;
22656;SDS011;11495;55.610;12.100;2023-03-13T05:52:00;19.30;;;7.82;;
22656;SDS011;11495;55.610;12.100;2023-03-13T05:54:25;16.00;;;7.15;;
22656;SDS011;11495;55.610;12.100;2023-03-13T05:56:51;18.77;;;8.38;;
22656;SDS011;11495;55.610;12.100;2023-03-13T05:59:16;11.83;;;6.70;;
22656;SDS011;11495;55.610;12.100;2023-03-13T06:01:41;16.27;;;8.03;;
22656;SDS011;11495;55.610;12.100;2023-03-13T06:04:06;12.02;;;6.85;;
22656;SDS011;11495;55.610;12.100;2023-03-13T06:06:31;18.12;;;7.35;;
22656;SDS011;11495;55.610;12.100;2023-03-13T06:08:57;10.67;;;6.00;;
22656;SDS011;11495;55.610;12.100;2023-03-13T06:11:22;15.77;;;7.73;;
22656;SDS011;11495;55.610;12.100;2023-03-13T06:13:47;17.65;;;7.65;;
22656;SDS011;11495;55.610;12.100;2023-03-13T06:16:14;9.77;;;5.53;;
22656;SDS011;11495;55.610;12.100;2023-03-13T06:18:40;13.77;;;6.40;;
22656;SDS011;11495;55.610;12.100;2023-03-13T06:21:05;17.25;;;8.40;;
22656;SDS011;11495;55.610;12.100;2023-03-13T06:23:30;12.73;;;6.90;;
22656;SDS011;11495;55.610;12.100;2023-03-13T06:25:55;14.43;;;7.15;;
22656;SDS011;11495;55.610;12.100;2023-03-13T06:28:21;13.27;;;6.30;;
22656;SDS011;11495;55.610;12.100;2023-03-13T06:30:46;14.40;;;6.57;;
22656;SDS011;11495;55.610;12.100;2023-03-13T06:33:11;16.20;;;6.57;;
22656;SDS011;11495;55.610;12.100;2023-03-13T06:35:40;12.57;;;5.93;;
22656;SDS011;11495;55.610;12.100;2023-03-13T06:38:05;11.32;;;6.28;;
22656;SDS011;11495;55.610;12.100;2023-03-13T06:40:31;9.98;;;5.75;;
22656;SDS011;11495;55.610;12.100;2023-03-13T06:42:56;11.40;;;5.50;;
22656;SDS011;11495;55.610;12.100;2023-03-13T06:45:21;7.37;;;5.60;;
22656;SDS011;11495;55.610;12.100;2023-03-13T06:47:47;10.65;;;5.97;;
22656;SDS011;11495;55.610;12.100;2023-03-13T06:50:13;9.60;;;6.37;;
22656;SDS011;11495;55.610;12.100;2023-03-13T06:52:38;11.30;;;4.85;;
22656;SDS011;11495;55.610;12.100;2023-03-13T06:55:03;8.15;;;5.07;;
22656;SDS011;11495;55.610;12.100;2023-03-13T06:57:29;7.78;;;5.35;;
22656;SDS011;11495;55.610;12.100;2023-03-13T06:59:54;12.20;;;5.27;;
22656;SDS011;11495;55.610;12.100;2023-03-13T07:02:19;11.57;;;5.37;;
22656;SDS011;11495;55.610;12.100;2023-03-13T07:04:44;8.83;;;5.37;;
22656;SDS011;11495;55.610;12.100;2023-03-13T07:07:10;7.95;;;4.25;;
22656;SDS011;11495;55.610;12.100;2023-03-13T07:09:35;7.93;;;5.05;;
22656;SDS011;11495;55.610;12.100;2023-03-13T07:12:01;8.27;;;4.60;;
22656;SDS011;11495;55.610;12.100;2023-03-13T07:14:27;8.38;;;4.93;;
22656;SDS011;11495;55.610;12.100;2023-03-13T07:16:52;6.37;;;4.22;;
22656;SDS011;11495;55.610;12.100;2023-03-13T07:19:17;8.38;;;4.70;;
22656;SDS011;11495;55.610;12.100;2023-03-13T07:21:43;10.93;;;4.30;;
22656;SDS011;11495;55.610;12.100;2023-03-13T07:24:08;9.43;;;4.55;;
22656;SDS011;11495;55.610;12.100;2023-03-13T07:26:33;5.32;;;4.10;;
22656;SDS011;11495;55.610;12.100;2023-03-13T07:28:58;7.73;;;4.10;;
22656;SDS011;11495;55.610;12.100;2023-03-13T07:31:24;7.73;;;4.17;;
22656;SDS011;11495;55.610;12.100;2023-03-13T07:33:49;9.50;;;4.75;;
22656;SDS011;11495;55.610;12.100;2023-03-13T07:36:17;7.80;;;3.90;;
22656;SDS011;11495;55.610;12.100;2023-03-13T07:38:42;5.65;;;3.45;;
22656;SDS011;11495;55.610;12.100;2023-03-13T07:41:09;5.50;;;3.47;;
22656;SDS011;11495;55.610;12.100;2023-03-13T07:43:35;7.30;;;3.03;;
22656;SDS011;11495;55.610;12.100;2023-03-13T07:46:01;7.55;;;4.05;;
22656;SDS011;11495;55.610;12.100;2023-03-13T07:48:28;8.73;;;4.12;;
22656;SDS011;11495;55.610;12.100;2023-03-13T07:50:54;6.15;;;3.72;;
22656;SDS011;11495;55.610;12.100;2023-03-13T07:53:20;6.15;;;3.30;;
22656;SDS011;11495;55.610;12.100;2023-03-13T07:55:52;5.75;;;3.45;;
22656;SDS011;11495;55.610;12.100;2023-03-13T07:58:18;5.83;;;3.70;;
22656;SDS011;11495;55.610;12.100;2023-03-13T08:00:43;4.57;;;3.20;;
22656;SDS011;11495;55.610;12.100;2023-03-13T08:03:08;5.97;;;3.50;;
22656;SDS011;11495;55.610;12.100;2023-03-13T08:05:34;5.40;;;3.05;;
22656;SDS011;11495;55.610;12.100;2023-03-13T08:07:59;5.82;;;3.42;;
22656;SDS011;11495;55.610;12.100;2023-03-13T08:10:24;4.10;;;2.77;;
22656;SDS011;11495;55.610;12.100;2023-03-13T08:12:50;6.63;;;4.60;;
22656;SDS011;11495;55.610;12.100;2023-03-13T08:15:15;5.97;;;3.20;;
22656;SDS011;11495;55.610;12.100;2023-03-13T08:17:42;6.28;;;3.10;;
22656;SDS011;11495;55.610;12.100;2023-03-13T08:20:08;4.43;;;2.97;;
22656;SDS011;11495;55.610;12.100;2023-03-13T08:22:34;4.55;;;2.50;;
22656;SDS011;11495;55.610;12.100;2023-03-13T08:25:01;3.67;;;2.20;;
22656;SDS011;11495;55.610;12.100;2023-03-13T08:27:28;6.12;;;3.33;;
22656;SDS011;11495;55.610;12.100;2023-03-13T08:29:53;3.53;;;2.75;;
22656;SDS011;11495;55.610;12.100;2023-03-13T08:32:18;5.80;;;2.53;;
22656;SDS011;11495;55.610;12.100;2023-03-13T08:34:44;3.97;;;2.25;;
22656;SDS011;11495;55.610;12.100;2023-03-13T08:37:09;4.43;;;2.55;;
22656;SDS011;11495;55.610;12.100;2023-03-13T08:39:38;3.97;;;2.53;;
22656;SDS011;11495;55.610;12.100;2023-03-13T08:42:03;3.97;;;2.60;;
22656;SDS011;11495;55.610;12.100;2023-03-13T08:44:29;3.75;;;2.25;;
22656;SDS011;11495;55.610;12.100;2023-03-13T08:46:54;3.67;;;2.40;;
22656;SDS011;11495;55.610;12.100;2023-03-13T08:49:20;1.70;;;1.40;;
22656;SDS011;11495;55.610;12.100;2023-03-13T08:51:46;3.20;;;1.70;;
22656;SDS011;11495;55.610;12.100;2023-03-13T08:54:11;3.13;;;1.40;;
22656;SDS011;11495;55.610;12.100;2023-03-13T08:56:36;1.85;;;1.27;;
22656;SDS011;11495;55.610;12.100;2023-03-13T08:59:03;2.42;;;1.52;;
22656;SDS011;11495;55.610;12.100;2023-03-13T09:01:29;1.42;;;1.05;;
22656;SDS011;11495;55.610;12.100;2023-03-13T09:03:55;1.30;;;1.08;;
22656;SDS011;11495;55.610;12.100;2023-03-13T09:06:20;5.72;;;1.35;;
22656;SDS011;11495;55.610;12.100;2023-03-13T09:08:46;2.35;;;1.08;;
22656;SDS011;11495;55.610;12.100;2023-03-13T09:11:12;2.10;;;1.05;;
22656;SDS011;11495;55.610;12.100;2023-03-13T09:13:39;2.10;;;1.10;;
22656;SDS011;11495;55.610;12.100;2023-03-13T09:16:05;3.55;;;1.30;;
22656;SDS011;11495;55.610;12.100;2023-03-13T09:18:31;3.60;;;1.10;;
22656;SDS011;11495;55.610;12.100;2023-03-13T09:20:56;1.87;;;0.80;;
22656;SDS011;11495;55.610;12.100;2023-03-13T09:23:22;1.85;;;0.77;;
22656;SDS011;11495;55.610;12.100;2023-03-13T09:25:48;1.40;;;0.70;;
22656;SDS011;11495;55.610;12.100;2023-03-13T09:28:14;0.88;;;0.68;;
22656;SDS011;11495;55.610;12.100;2023-03-13T09:30:39;0.77;;;0.70;;
22656;SDS011;11495;55.610;12.100;2023-03-13T09:33:04;1.17;;;0.80;;
22656;SDS011;11495;55.610;12.100;2023-03-13T09:35:30;0.88;;;0.70;;
22656;SDS011;11495;55.610;12.100;2023-03-13T09:37:55;2.70;;;0.43;;
22656;SDS011;11495;55.610;12.100;2023-03-13T09:40:21;1.50;;;0.77;;
22656;SDS011;11495;55.610;12.100;2023-03-13T09:45:17;0.70;;;0.70;;
22656;SDS011;11495;55.610;12.100;2023-03-13T09:52:40;1.02;;;0.68;;
22656;SDS011;11495;55.610;12.100;2023-03-13T09:55:22;1.08;;;0.60;;
22656;SDS011;11495;55.610;12.100;2023-03-13T09:57:55;1.48;;;0.80;;
22656;SDS011;11495;55.610;12.100;2023-03-13T10:00:23;0.93;;;0.70;;
22656;SDS011;11495;55.610;12.100;2023-03-13T10:02:54;0.82;;;0.60;;
22656;SDS011;11495;55.610;12.100;2023-03-13T10:05:21;0.60;;;0.60;;
22656;SDS011;11495;55.610;12.100;2023-03-13T10:07:47;1.15;;;0.73;;
22656;SDS011;11495;55.610;12.100;2023-03-13T10:10:16;1.15;;;0.68;;
22656;SDS011;11495;55.610;12.100;2023-03-13T10:12:46;1.05;;;0.70;;
22656;SDS011;11495;55.610;12.100;2023-03-13T10:17:56;0.95;;;0.60;;
22656;SDS011;11495;55.610;12.100;2023-03-13T10:20:26;0.68;;;0.47;;
22656;SDS011;11495;55.610;12.100;2023-03-13T10:25:36;0.85;;;0.65;;
22656;SDS011;11495;55.610;12.100;2023-03-13T10:28:02;2.65;;;1.35;;
22656;SDS011;11495;55.610;12.100;2023-03-13T10:30:29;1.65;;;0.60;;
22656;SDS011;11495;55.610;12.100;2023-03-13T10:35:41;0.80;;;0.40;;
22656;SDS011;11495;55.610;12.100;2023-03-13T10:40:35;1.45;;;0.90;;
22656;SDS011;11495;55.610;12.100;2023-03-13T10:43:02;0.98;;;0.50;;
22656;SDS011;11495;55.610;12.100;2023-03-13T10:45:30;3.40;;;1.02;;
22656;SDS011;11495;55.610;12.100;2023-03-13T10:47:56;2.10;;;1.30;;
22656;SDS011;11495;55.610;12.100;2023-03-13T10:50:24;1.65;;;0.80;;
22656;SDS011;11495;55.610;12.100;2023-03-13T10:52:50;1.95;;;0.77;;
22656;SDS011;11495;55.610;12.100;2023-03-13T10:55:25;1.83;;;1.23;;
22656;SDS011;11495;55.610;12.100;2023-03-13T10:57:55;1.55;;;1.08;;
22656;SDS011;11495;55.610;12.100;2023-03-13T11:02:56;4.07;;;2.37;;
22656;SDS011;11495;55.610;12.100;2023-03-13T11:07:50;4.60;;;2.30;;
22656;SDS011;11495;55.610;12.100;2023-03-13T11:12:51;1.20;;;0.90;;
22656;SDS011;11495;55.610;12.100;2023-03-13T11:15:30;0.77;;;0.65;;
22656;SDS011;11495;55.610;12.100;2023-03-13T11:20:29;2.12;;;0.90;;
22656;SDS011;11495;55.610;12.100;2023-03-13T11:28:04;1.00;;;0.80;;
22656;SDS011;11495;55.610;12.100;2023-03-13T11:41:03;2.67;;;1.50;;
22656;SDS011;11495;55.610;12.100;2023-03-13T11:48:50;0.50;;;0.50;;
22656;SDS011;11495;55.610;12.100;2023-03-13T12:01:36;4.65;;;1.60;;
22656;SDS011;11495;55.610;12.100;2023-03-13T12:04:03;1.35;;;1.02;;
22656;SDS011;11495;55.610;12.100;2023-03-13T12:09:03;3.07;;;2.33;;
22656;SDS011;11495;55.610;12.100;2023-03-13T12:12:14;2.85;;;2.25;;
22656;SDS011;11495;55.610;12.100;2023-03-13T12:14:26;5.75;;;2.90;;
22656;SDS011;11495;55.610;12.100;2023-03-13T12:17:08;7.55;;;3.15;;
22656;SDS011;11495;55.610;12.100;2023-03-13T12:22:12;5.43;;;2.47;;
22656;SDS011;11495;55.610;12.100;2023-03-13T12:24:40;11.93;;;4.55;;
22656;SDS011;11495;55.610;12.100;2023-03-13T12:27:16;29.15;;;15.27;;
22656;SDS011;11495;55.610;12.100;2023-03-13T12:32:37;16.33;;;8.50;;
22656;SDS011;11495;55.610;12.100;2023-03-13T12:43:21;17.98;;;8.95;;
22656;SDS011;11495;55.610;12.100;2023-03-13T12:59:03;14.43;;;4.07;;
22656;SDS011;11495;55.610;12.100;2023-03-13T13:01:30;9.85;;;4.22;;
22656;SDS011;11495;55.610;12.100;2023-03-13T13:04:04;10.02;;;3.25;;
22656;SDS011;11495;55.610;12.100;2023-03-13T13:09:23;6.87;;;3.45;;
22656;SDS011;11495;55.610;12.100;2023-03-13T13:16:43;9.98;;;2.72;;
22656;SDS011;11495;55.610;12.100;2023-03-13T13:24:55;17.52;;;3.92;;
22656;SDS011;11495;55.610;12.100;2023-03-13T13:29:53;9.18;;;2.72;;
22656;SDS011;11495;55.610;12.100;2023-03-13T13:32:27;10.23;;;2.95;;
22656;SDS011;11495;55.610;12.100;2023-03-13T13:34:54;11.32;;;3.87;;
22656;SDS011;11495;55.610;12.100;2023-03-13T13:39:45;30.43;;;11.80;;
22656;SDS011;11495;55.610;12.100;2023-03-13T13:45:02;30.20;;;11.50;;
22656;SDS011;11495;55.610;12.100;2023-03-13T13:47:29;13.55;;;4.90;;
22656;SDS011;11495;55.610;12.100;2023-03-13T13:49:55;9.68;;;3.00;;
22656;SDS011;11495;55.610;12.100;2023-03-13T13:52:32;8.07;;;3.10;;
22656;SDS011;11495;55.610;12.100;2023-03-13T13:54:58;10.88;;;2.85;;
22656;SDS011;11495;55.610;12.100;2023-03-13T13:57:29;13.00;;;2.67;;
22656;SDS011;11495;55.610;12.100;2023-03-13T14:00:03;10.98;;;2.62;;
22656;SDS011;11495;55.610;12.100;2023-03-13T14:02:45;8.65;;;2.75;;
22656;SDS011;11495;55.610;12.100;2023-03-13T14:05:22;11.93;;;2.90;;
22656;SDS011;11495;55.610;12.100;2023-03-13T14:10:28;14.02;;;3.62;;
22656;SDS011;11495;55.610;12.100;2023-03-13T14:12:58;14.20;;;3.70;;
22656;SDS011;11495;55.610;12.100;2023-03-13T14:15:24;15.05;;;3.20;;
22656;SDS011;11495;55.610;12.100;2023-03-13T14:17:54;6.87;;;2.25;;
22656;SDS011;11495;55.610;12.100;2023-03-13T14:20:31;8.35;;;2.05;;
22656;SDS011;11495;55.610;12.100;2023-03-13T14:23:07;11.12;;;2.80;;
22656;SDS011;11495;55.610;12.100;2023-03-13T14:25:43;11.48;;;3.05;;
22656;SDS011;11495;55.610;12.100;2023-03-13T14:28:16;40.00;;;14.98;;
22656;SDS011;11495;55.610;12.100;2023-03-13T14:30:42;13.43;;;4.37;;
22656;SDS011;11495;55.610;12.100;2023-03-13T14:33:08;10.63;;;3.70;;
22656;SDS011;11495;55.610;12.100;2023-03-13T14:35:33;11.13;;;2.93;;
22656;SDS011;11495;55.610;12.100;2023-03-13T14:38:01;18.80;;;3.33;;
22656;SDS011;11495;55.610;12.100;2023-03-13T14:40:28;9.38;;;2.40;;
22656;SDS011;11495;55.610;12.100;2023-03-13T14:42:57;9.50;;;2.95;;
22656;SDS011;11495;55.610;12.100;2023-03-13T14:47:49;12.70;;;2.12;;
22656;SDS011;11495;55.610;12.100;2023-03-13T14:50:15;8.18;;;2.33;;
22656;SDS011;11495;55.610;12.100;2023-03-13T14:52:45;12.48;;;2.78;;
22656;SDS011;11495;55.610;12.100;2023-03-13T15:08:26;14.82;;;3.28;;
22656;SDS011;11495;55.610;12.100;2023-03-13T15:10:51;19.10;;;3.22;;
22656;SDS011;11495;55.610;12.100;2023-03-13T15:13:24;16.50;;;3.00;;
22656;SDS011;11495;55.610;12.100;2023-03-13T15:15:50;12.32;;;3.17;;
22656;SDS011;11495;55.610;12.100;2023-03-13T15:18:17;11.93;;;4.10;;
22656;SDS011;11495;55.610;12.100;2023-03-13T15:20:43;15.95;;;3.05;;
22656;SDS011;11495;55.610;12.100;2023-03-13T15:23:10;18.25;;;3.67;;
22656;SDS011;11495;55.610;12.100;2023-03-13T15:25:37;13.25;;;2.83;;
22656;SDS011;11495;55.610;12.100;2023-03-13T15:28:05;14.25;;;3.28;;
22656;SDS011;11495;55.610;12.100;2023-03-13T15:30:30;14.65;;;3.53;;
22656;SDS011;11495;55.610;12.100;2023-03-13T15:32:55;20.30;;;3.60;;
22656;SDS011;11495;55.610;12.100;2023-03-13T15:35:22;14.37;;;2.47;;
22656;SDS011;11495;55.610;12.100;2023-03-13T15:37:48;19.83;;;3.83;;
22656;SDS011;11495;55.610;12.100;2023-03-13T15:40:14;16.20;;;3.62;;
22656;SDS011;11495;55.610;12.100;2023-03-13T15:42:40;13.57;;;3.20;;
22656;SDS011;11495;55.610;12.100;2023-03-13T15:45:07;17.83;;;5.90;;
22656;SDS011;11495;55.610;12.100;2023-03-13T15:47:32;19.17;;;5.12;;
22656;SDS011;11495;55.610;12.100;2023-03-13T15:49:58;18.60;;;5.70;;
22656;SDS011;11495;55.610;12.100;2023-03-13T15:52:23;19.60;;;5.33;;
22656;SDS011;11495;55.610;12.100;2023-03-13T15:54:49;20.53;;;5.37;;
22656;SDS011;11495;55.610;12.100;2023-03-13T15:57:15;10.20;;;4.18;;
22656;SDS011;11495;55.610;12.100;2023-03-13T15:59:41;13.77;;;3.90;;
22656;SDS011;11495;55.610;12.100;2023-03-13T16:02:16;15.85;;;3.42;;
22656;SDS011;11495;55.610;12.100;2023-03-13T16:04:42;17.40;;;4.65;;
22656;SDS011;11495;55.610;12.100;2023-03-13T16:07:11;60.65;;;20.00;;
22656;SDS011;11495;55.610;12.100;2023-03-13T16:09:37;34.70;;;13.55;;
22656;SDS011;11495;55.610;12.100;2023-03-13T16:12:02;26.92;;;8.23;;
22656;SDS011;11495;55.610;12.100;2023-03-13T16:14:27;17.60;;;5.53;;
22656;SDS011;11495;55.610;12.100;2023-03-13T16:16:52;25.03;;;5.07;;
22656;SDS011;11495;55.610;12.100;2023-03-13T16:19:18;18.93;;;4.33;;
22656;SDS011;11495;55.610;12.100;2023-03-13T16:21:44;35.08;;;10.88;;
22656;SDS011;11495;55.610;12.100;2023-03-13T16:24:12;15.88;;;6.28;;
22656;SDS011;11495;55.610;12.100;2023-03-13T16:26:38;16.83;;;7.32;;
22656;SDS011;11495;55.610;12.100;2023-03-13T16:29:03;16.17;;;4.37;;
22656;SDS011;11495;55.610;12.100;2023-03-13T16:31:30;17.85;;;4.28;;
22656;SDS011;11495;55.610;12.100;2023-03-13T16:33:55;12.63;;;4.22;;
22656;SDS011;11495;55.610;12.100;2023-03-13T16:36:22;16.95;;;4.10;;
22656;SDS011;11495;55.610;12.100;2023-03-13T16:38:48;19.08;;;3.30;;